Time;durP1;ratioP1;P1;durP2;ratioP2;P2;SDS_P1;SDS_P2;PMS_P1;PMS_P2;Temp;Humidity;BMP_temperature;BMP_pressure;BME280_temperature;BME280_humidity;BME280_pressure;Samples;Min_cycle;Max_cycle;Signal;HPM_P1;HPM_P2
2022/08/10 00:00:20;;;;;;;5.82;4.07;;;15.10;99.90;;;;;;21048309;28;20562;-51
2022/08/10 00:10:24;;;;;;;5.00;4.20;;;15.20;99.90;;;;;;21048555;28;20105;-54
2022/08/10 00:20:28;;;;;;;5.30;4.15;;;15.30;99.90;;;;;;21048377;28;20032;-53
2022/08/10 00:30:30;;;;;;;7.07;4.80;;;15.40;99.90;;;;;;21047201;28;20058;-54
2022/08/10 00:40:33;;;;;;;7.32;5.22;;;15.10;99.90;;;;;;20973359;28;20041;-53
2022/08/10 00:50:36;;;;;;;8.85;5.00;;;14.80;99.90;;;;;;20978179;28;20036;-54
2022/08/10 01:00:41;;;;;;;6.13;4.65;;;14.60;99.90;;;;;;20977076;28;20040;-60
2022/08/10 01:11:01;;;;;;;4.95;4.20;;;14.40;99.90;;;;;;20895336;28;20353;-62
2022/08/10 01:21:18;;;;;;;6.17;5.43;;;14.20;99.90;;;;;;20893786;28;20067;-52
2022/08/10 01:31:29;;;;;;;7.15;6.15;;;14.00;99.90;;;;;;20895895;28;20048;-60
2022/08/10 01:41:40;;;;;;;8.95;6.30;;;13.90;99.90;;;;;;21106572;28;20039;-51
2022/08/10 01:51:51;;;;;;;8.27;6.38;;;13.80;99.90;;;;;;21140702;28;20050;-52
2022/08/10 02:01:58;;;;;;;7.57;6.28;;;13.80;99.90;;;;;;21131091;28;20081;-53
2022/08/10 02:12:10;;;;;;;11.20;7.25;;;13.70;99.90;;;;;;21057104;28;20093;-51
2022/08/10 02:22:15;;;;;;;11.25;8.20;;;13.70;99.90;;;;;;21054968;28;20044;-52
2022/08/10 02:32:21;;;;;;;9.88;7.80;;;13.80;99.90;;;;;;21054567;28;20098;-52
2022/08/10 02:42:29;;;;;;;12.90;7.88;;;13.90;99.90;;;;;;21053889;28;20377;-53
2022/08/10 02:52:43;;;;;;;9.85;8.20;;;14.10;99.90;;;;;;21053277;28;20093;-52
2022/08/10 03:02:48;;;;;;;9.25;7.25;;;14.10;99.90;;;;;;21034920;28;20106;-59
2022/08/10 03:13:04;;;;;;;8.65;7.05;;;13.90;99.90;;;;;;21036478;28;20032;-51
2022/08/10 03:23:17;;;;;;;8.65;6.72;;;14.00;99.90;;;;;;21050960;28;20031;-54
2022/08/10 03:33:21;;;;;;;7.22;6.10;;;14.30;99.90;;;;;;21050712;28;20128;-51
2022/08/10 03:43:26;;;;;;;7.93;5.30;;;14.50;99.90;;;;;;21050298;28;20115;-60
2022/08/10 03:53:28;;;;;;;7.95;5.50;;;14.80;99.90;;;;;;21050061;28;20032;-54
2022/08/10 04:03:31;;;;;;;5.18;4.68;;;14.80;99.90;;;;;;21026780;28;20024;-51
2022/08/10 04:13:33;;;;;;;6.90;4.78;;;14.80;99.90;;;;;;21107132;28;20039;-52
2022/08/10 04:23:43;;;;;;;7.13;4.45;;;14.60;99.90;;;;;;21148575;28;20035;-53
2022/08/10 04:33:49;;;;;;;5.03;4.38;;;14.60;99.90;;;;;;21146963;28;20116;-51
2022/08/10 04:43:51;;;;;;;5.95;4.43;;;14.50;99.90;;;;;;21146967;28;20035;-53
2022/08/10 04:53:53;;;;;;;5.25;4.30;;;14.40;99.90;;;;;;21146209;28;20031;-54
2022/08/10 05:03:56;;;;;;;4.90;3.90;;;14.60;99.90;;;;;;21119337;28;20490;-60
2022/08/10 05:13:58;;;;;;;4.65;3.90;;;14.90;99.90;;;;;;21126697;28;20023;-54
2022/08/10 05:24:03;;;;;;;4.38;3.47;;;15.00;99.90;;;;;;21143295;28;20084;-55
2022/08/10 05:34:05;;;;;;;3.85;3.15;;;15.10;99.90;;;;;;21143329;28;20187;-52
2022/08/10 05:44:08;;;;;;;3.50;2.92;;;15.20;99.90;;;;;;21141924;28;20080;-54
2022/08/10 05:54:14;;;;;;;5.68;3.20;;;15.20;99.90;;;;;;21141646;28;20624;-53
2022/08/10 06:04:41;;;;;;;5.20;2.88;;;14.90;99.90;;;;;;21111729;28;20085;-60
2022/08/10 06:15:00;;;;;;;4.38;2.20;;;14.80;99.90;;;;;;21045567;28;20122;-60
2022/08/10 06:25:05;;;;;;;4.53;2.20;;;14.90;99.90;;;;;;21074049;28;20032;-51
2022/08/10 06:35:10;;;;;;;4.28;1.80;;;15.00;99.90;;;;;;21053629;28;20097;-55
2022/08/10 06:45:22;;;;;;;1.95;1.75;;;16.90;99.90;;;;;;21053825;28;20036;-55
2022/08/10 06:55:26;;;;;;;2.85;1.48;;;19.80;99.20;;;;;;21053372;28;20040;-58
2022/08/10 07:05:30;;;;;;;2.95;1.20;;;21.40;96.00;;;;;;21013546;28;20071;-62
2022/08/10 07:15:35;;;;;;;5.13;1.42;;;23.20;95.30;;;;;;21034116;28;20085;-57
2022/08/10 07:25:41;;;;;;;3.40;1.63;;;24.90;91.80;;;;;;21034551;28;20052;-56
2022/08/10 07:35:44;;;;;;;1.98;1.40;;;25.40;88.60;;;;;;21050397;28;20040;-56
2022/08/10 07:45:48;;;;;;;1.77;1.52;;;25.10;88.20;;;;;;21052083;28;20435;-56
2022/08/10 07:55:53;;;;;;;3.35;1.63;;;25.10;90.30;;;;;;21077431;28;20382;-56
2022/08/10 08:06:00;;;;;;;4.85;2.00;;;25.20;88.00;;;;;;21034633;28;20101;-56
2022/08/10 08:16:04;;;;;;;5.07;1.98;;;25.50;86.60;;;;;;21058891;28;20558;-57
2022/08/10 08:26:10;;;;;;;2.25;1.42;;;26.50;86.20;;;;;;21142429;28;20031;-57
2022/08/10 08:36:16;;;;;;;5.30;2.50;;;26.90;90.00;;;;;;21159239;28;20495;-56
2022/08/10 08:46:44;;;;;;;2.07;1.70;;;27.40;83.00;;;;;;21159220;28;20035;-56
2022/08/10 08:56:58;;;;;;;4.10;1.55;;;27.50;81.10;;;;;;20751400;28;20300;-56
2022/08/10 09:07:42;;;;;;;3.60;2.17;;;27.80;84.60;;;;;;20671445;28;20527;-56
2022/08/10 09:17:50;;;;;;;1.90;1.52;;;27.50;83.40;;;;;;20711435;28;20149;-58
2022/08/10 09:28:08;;;;;;;3.15;2.30;;;27.40;83.00;;;;;;20869199;28;20043;-56
2022/08/10 09:38:16;;;;;;;;;;;27.40;82.30;;;;;;21142528;28;20044;-55
2022/08/10 09:48:38;;;;;;;4.55;1.90;;;26.80;81.80;;;;;;21141136;28;19968;-59
2022/08/10 09:59:08;;;;;;;4.28;1.90;;;25.80;85.50;;;;;;21140400;28;20035;-52
2022/08/10 10:09:35;;;;;;;4.05;1.80;;;24.50;86.60;;;;;;21069311;28;20366;-56
2022/08/10 10:19:47;;;;;;;2.47;1.77;;;24.50;90.00;;;;;;21055808;28;20089;-54
2022/08/10 10:30:05;;;;;;;2.85;1.92;;;25.50;85.20;;;;;;20971113;28;20036;-55
2022/08/10 10:40:07;;;;;;;;;;;25.90;84.90;;;;;;20987164;28;20110;-56
2022/08/10 10:50:30;;;;;;;3.50;2.15;;;26.50;87.10;;;;;;20969282;28;19908;-55
2022/08/10 11:00:49;;;;;;;7.28;1.90;;;26.80;85.10;;;;;;20968597;28;20147;-55
2022/08/10 11:11:21;;;;;;;4.97;1.77;;;27.00;88.10;;;;;;20968110;28;20032;-55
2022/08/10 11:22:09;;;;;;;5.00;2.05;;;26.70;84.30;;;;;;20966763;28;20028;-56
2022/08/10 11:32:46;;;;;;;2.60;1.77;;;26.30;88.00;;;;;;20575654;28;20226;-56
2022/08/10 11:43:04;;;;;;;3.23;2.27;;;26.90;83.50;;;;;;20706112;28;20100;-56
2022/08/10 11:53:25;;;;;;;4.43;2.35;;;27.00;87.20;;;;;;20710136;28;20050;-54
2022/08/10 12:03:31;;;;;;;4.00;2.10;;;26.30;82.80;;;;;;20972714;28;20058;-54
2022/08/10 12:13:44;;;;;;;3.55;2.30;;;26.10;85.20;;;;;;21048407;28;20036;-57
2022/08/10 12:23:56;;;;;;;4.00;2.17;;;26.50;86.30;;;;;;21047813;28;20544;-54
2022/08/10 12:34:39;;;;;;;3.55;2.10;;;26.80;84.40;;;;;;21072547;28;20404;-53
2022/08/10 12:44:51;;;;;;;3.15;2.25;;;27.10;87.10;;;;;;21146178;28;20040;-52
2022/08/10 12:54:58;;;;;;;2.70;2.25;;;27.50;79.00;;;;;;21145921;28;20039;-51
2022/08/10 13:05:04;;;;;;;2.47;1.97;;;27.60;80.50;;;;;;21111399;28;20483;-52
2022/08/10 13:15:09;;;;;;;4.22;1.80;;;27.60;82.70;;;;;;21060445;28;20058;-57
2022/08/10 13:25:15;;;;;;;3.33;2.20;;;27.20;80.60;;;;;;21059534;28;20093;-52
2022/08/10 13:35:20;;;;;;;6.80;2.70;;;27.10;83.00;;;;;;21058294;28;20129;-52
2022/08/10 13:45:24;;;;;;;3.05;2.50;;;27.20;84.70;;;;;;21057477;28;20044;-59
2022/08/10 13:55:30;;;;;;;3.95;2.17;;;27.00;82.80;;;;;;21047004;28;20135;-63
2022/08/10 14:05:36;;;;;;;3.35;2.30;;;27.70;83.90;;;;;;21020965;28;20040;-63
2022/08/10 14:15:40;;;;;;;4.07;2.37;;;27.40;84.10;;;;;;20987902;28;20216;-62
2022/08/10 14:25:58;;;;;;;5.30;2.75;;;27.00;83.40;;;;;;21012255;28;20553;-63
2022/08/10 14:36:03;;;;;;;3.25;2.60;;;27.10;82.80;;;;;;21023073;28;20044;-63
2022/08/10 14:46:10;;;;;;;4.50;2.45;;;27.10;82.40;;;;;;21052342;28;20028;-63
2022/08/10 14:56:16;;;;;;;3.20;2.35;;;27.10;80.70;;;;;;21018493;28;20496;-59
2022/08/10 15:06:22;;;;;;;6.23;2.70;;;27.40;81.10;;;;;;21028481;28;20085;-58
2022/08/10 15:16:28;;;;;;;3.45;2.35;;;27.10;81.20;;;;;;21001841;28;20389;-57
2022/08/10 15:26:34;;;;;;;3.10;2.20;;;26.80;81.90;;;;;;21003161;28;20420;-55
2022/08/10 15:47:27;;;;;;;4.13;2.50;;;26.80;77.00;;;;;;21032485;28;20028;-63
2022/08/10 15:57:39;;;;;;;5.30;3.30;;;26.90;78.70;;;;;;20987484;28;20033;-60
2022/08/10 16:07:45;;;;;;;3.22;2.38;;;25.40;80.20;;;;;;21000261;28;20040;-69
2022/08/10 16:17:53;;;;;;;4.20;2.33;;;23.40;86.20;;;;;;21015939;28;20060;-63
2022/08/10 16:28:08;;;;;;;4.97;3.40;;;23.90;86.60;;;;;;21009424;28;20031;-66
2022/08/10 16:38:12;;;;;;;4.53;3.45;;;22.70;86.80;;;;;;21071000;28;20055;-66
2022/08/10 16:48:20;;;;;;;5.20;3.17;;;20.90;91.50;;;;;;21085129;28;20040;-66
2022/08/10 16:58:28;;;;;;;12.05;3.38;;;20.40;94.10;;;;;;21088650;28;20062;-64
2022/08/10 17:08:31;;;;;;;5.15;2.63;;;20.70;95.10;;;;;;21069127;28;20122;-65
2022/08/10 17:18:41;;;;;;;8.80;6.32;;;20.50;93.80;;;;;;21118884;28;20063;-67
2022/08/10 17:28:50;;;;;;;4.00;3.17;;;19.60;96.20;;;;;;21118944;28;20047;-58
2022/08/10 17:38:55;;;;;;;4.07;3.20;;;18.90;95.80;;;;;;21133238;28;20330;-66
2022/08/10 17:49:03;;;;;;;3.80;3.33;;;18.60;96.70;;;;;;21124401;28;20043;-66
2022/08/10 17:59:13;;;;;;;4.57;3.85;;;18.10;97.40;;;;;;21118804;28;20024;-65
2022/08/10 18:09:26;;;;;;;8.77;3.55;;;;;;;;;;21104108;28;20027;-60
2022/08/10 18:19:29;;;;;;;3.70;3.20;;;17.20;99.20;;;;;;21122589;28;20038;-67
2022/08/10 18:29:37;;;;;;;3.75;3.08;;;16.90;99.90;;;;;;21131827;28;20100;-67
2022/08/10 18:39:42;;;;;;;4.03;3.15;;;16.60;99.90;;;;;;21123524;28;20377;-66
2022/08/10 18:49:58;;;;;;;4.18;3.22;;;16.30;99.90;;;;;;21114349;28;20036;-61
2022/08/10 19:00:13;;;;;;;6.72;3.50;;;15.90;99.90;;;;;;21128449;28;20039;-64
2022/08/10 19:10:57;;;;;;;4.18;3.40;;;15.80;99.90;;;;;;21105089;28;20096;-59
2022/08/10 19:21:22;;;;;;;4.82;4.00;;;15.70;99.90;;;;;;21063257;28;20036;-63
2022/08/10 19:31:49;;;;;;;5.55;3.25;;;15.60;99.90;;;;;;21118132;28;20047;-60
2022/08/10 19:42:20;;;;;;;4.50;3.90;;;15.50;99.90;;;;;;21117610;28;20088;-60
2022/08/10 19:52:56;;;;;;;5.43;3.15;;;15.40;99.90;;;;;;21104479;28;20163;-60
2022/08/10 20:03:06;;;;;;;3.63;3.08;;;15.40;99.90;;;;;;21118214;28;20031;-58
2022/08/10 20:13:34;;;;;;;4.37;2.97;;;15.50;99.90;;;;;;21118977;28;20096;-55
2022/08/10 20:23:48;;;;;;;4.38;2.80;;;15.60;99.90;;;;;;21111887;28;20108;-55
2022/08/10 20:34:05;;;;;;;4.40;2.55;;;15.70;99.90;;;;;;21120536;28;20467;-59
2022/08/10 20:44:38;;;;;;;3.33;2.33;;;15.80;99.90;;;;;;21114704;28;20044;-59
2022/08/10 20:54:54;;;;;;;4.75;2.35;;;16.00;99.90;;;;;;21115155;28;20047;-54
2022/08/10 21:05:13;;;;;;;2.30;1.98;;;16.40;99.90;;;;;;21134231;28;20481;-55
2022/08/10 21:15:37;;;;;;;4.05;1.88;;;16.50;99.90;;;;;;21132425;28;20178;-59
2022/08/10 23:00:20;;;;;;;3.33;1.30;;;16.30;99.90;;;;;;21135257;28;20040;-56
2022/08/10 23:10:27;;;;;;;2.65;1.65;;;16.30;99.90;;;;;;21056182;28;20152;-55
2022/08/10 23:20:36;;;;;;;1.98;1.52;;;16.30;99.90;;;;;;21034675;28;20090;-55
2022/08/10 23:30:40;;;;;;;1.95;1.60;;;16.20;99.90;;;;;;21050372;28;20028;-55
2022/08/10 23:40:52;;;;;;;4.30;1.52;;;16.20;99.90;;;;;;20967973;28;20041;-59
2022/08/10 23:50:59;;;;;;;3.28;1.50;;;16.20;99.90;;;;;;20964874;28;20040;-59
